Strona główna
METAR-TAF:

METAR-TAF

Lotnisko :

Dakar, Senegal

Port lotniczy Dakar

Szerokość geograficzna: 14-44N, Długość geograficzna: 017-30W, wysokość: 27 m

Aktualna obserwacja pogody

Raport powstał 36 minut temu, godzina 03:00 UTC
Wiatr 8 kt od północny wschód
Temperatura 18°C
Wilgotność 77%
Ciśnienie 1017 hPa
Widzialność: 6000 m

METAR: GOOY 180300Z 04008KT 6000 NSC 18/14 Q1017

czas: 03:36 (03:36 UTC)

Prognoza

Raport powstał 4 godziny i 6 minut temu, godzina 23:30 UTC
Prognoza ważna od 18 godzina 00 UTC do 19 godzina 06 UTC
Wiatr 16 kt od północno-północny wschód
Widzialność: 4500 m
pył

TAF: GOOY 172330Z 1800/1906 02016KT 4500 DU NSC

Obserwacja i prognoza pogody dla ponad 4000 lotnisk (raport METAR i TAF).

Dostępne stacje oznaczono żółtymi i czerwonymi punktami na mapie.

Najedź kursorem aby zobaczyć nazwę stacji.

Kliknij aby zobaczyć obserwacje i prognozy pogody.

Aby zmienić mapę: kliknij na zielony przycisk z czarnym krzyżykiem, aby powiększyć; na zielony przycisk z myślnikiem, aby pomniejszyć; na zielone strzałki, aby przejść do map sąsiednich.


METAR-TAF: